createdAt,value
2022-11-21T00:12:44.699Z,10.25
2022-11-21T00:32:44.716Z,10.25
2022-11-21T00:52:44.731Z,10.25
2022-11-21T01:12:44.745Z,10.25
2022-11-21T01:32:44.649Z,10.37
2022-11-21T01:52:44.663Z,10.12
2022-11-21T02:12:44.684Z,10.25
2022-11-21T02:32:44.687Z,10.31
2022-11-21T02:52:44.700Z,10.25
2022-11-21T03:12:44.729Z,10.18
2022-11-21T03:32:44.634Z,10.12
2022-11-21T03:52:44.641Z,10.18
2022-11-21T04:12:44.661Z,10.18
2022-11-21T04:32:44.711Z,10.12
2022-11-21T04:52:44.688Z,10.06
2022-11-21T05:12:44.603Z,10.06
2022-11-21T05:32:44.616Z,10.06
2022-11-21T05:52:44.636Z,10.25
2022-11-21T06:12:44.671Z,10.25
2022-11-21T06:32:44.658Z,10.25
2022-11-21T06:52:44.575Z,10.25
2022-11-21T07:12:44.633Z,10.25
2022-11-21T07:32:44.608Z,10.12
2022-11-21T07:52:44.630Z,9.87
2022-11-21T08:12:44.636Z,10.00
2022-11-21T08:32:44.550Z,10.00
2022-11-21T08:52:44.588Z,10.00
2022-11-21T09:12:44.578Z,10.00
2022-11-21T09:32:44.654Z,10.00
2022-11-21T09:52:44.600Z,10.12
2022-11-21T10:12:44.572Z,10.00
2022-11-21T10:32:44.531Z,9.87
2022-11-21T10:52:44.549Z,10.06
2022-11-21T11:12:44.559Z,10.18
2022-11-21T11:32:44.477Z,10.18
2022-11-21T11:52:44.515Z,10.25
2022-11-21T12:12:44.509Z,10.12
2022-11-21T12:32:44.621Z,10.12
2022-11-21T12:52:44.453Z,10.12
2022-11-21T13:12:44.531Z,10.18
2022-11-21T13:32:44.519Z,10.31
2022-11-21T13:52:44.406Z,10.18
2022-11-21T14:12:44.487Z,10.43
2022-11-21T14:32:44.629Z,10.31
2022-11-21T14:52:44.526Z,10.43
2022-11-21T15:12:44.491Z,10.37
2022-11-21T15:32:44.550Z,10.37
2022-11-21T15:52:44.493Z,10.18
2022-11-21T16:12:44.517Z,10.06
2022-11-21T16:32:44.354Z,10.06
2022-11-21T16:52:44.376Z,9.81
2022-11-21T17:12:44.451Z,9.75
2022-11-21T17:32:44.486Z,9.56
2022-11-21T17:52:44.384Z,9.68
2022-11-21T18:12:44.342Z,9.75
2022-11-21T18:32:44.413Z,9.75
2022-11-21T18:52:44.374Z,9.75
2022-11-21T19:12:44.419Z,9.56
2022-11-21T19:32:44.532Z,9.43
2022-11-21T19:52:44.334Z,9.43
2022-11-21T20:12:44.481Z,9.50
2022-11-21T20:32:44.361Z,9.43
2022-11-21T20:52:44.410Z,9.56
2022-11-21T21:12:44.426Z,9.50
2022-11-21T21:32:44.428Z,9.25
2022-11-21T21:52:44.333Z,9.62
2022-11-21T22:12:44.539Z,9.50
2022-11-21T22:32:44.360Z,9.56
2022-11-21T22:52:44.482Z,9.50
2022-11-21T23:12:44.399Z,9.50
2022-11-21T23:32:44.419Z,9.43
2022-11-21T23:52:44.329Z,9.50
